Terminal Aerodrome Forecast
Issued by NWS

Home | Current Version | Previous Version | Text Only | Print | Product List | Glossary On
Versions: 1 2 3 4 5 6 7 8 9 10 11 12 13 14 15 16 17 18 19 20
879
FTUS46 KSEW 300523
TAFBLI
TAF
KBLI 300523Z 3006/0106 16005KT P6SM SCT250
      TEMPO 3014/3018 BKN005
     FM010400 VRB03KT P6SM SCT120 BKN200=

USA.gov is the U.S. government's official web portal to all federal, state and local government web resources and services.